sensor_id;sensor_type;location;lat;lon;timestamp;P1;durP1;ratioP1;P2;durP2;ratioP2
40022;SDS011;25713;-35.352;149.036;2024-02-04T00:01:30;6.93;;;3.60;;
40022;SDS011;25713;-35.352;149.036;2024-02-04T00:03:59;7.72;;;3.47;;
40022;SDS011;25713;-35.352;149.036;2024-02-04T00:06:29;7.43;;;3.17;;
40022;SDS011;25713;-35.352;149.036;2024-02-04T00:08:59;6.82;;;2.90;;
40022;SDS011;25713;-35.352;149.036;2024-02-04T00:11:29;8.43;;;2.72;;
40022;SDS011;25713;-35.352;149.036;2024-02-04T00:14:01;9.90;;;3.13;;
40022;SDS011;25713;-35.352;149.036;2024-02-04T00:16:30;8.43;;;3.50;;
40022;SDS011;25713;-35.352;149.036;2024-02-04T00:19:00;6.95;;;2.90;;
40022;SDS011;25713;-35.352;149.036;2024-02-04T00:21:30;8.68;;;3.10;;
40022;SDS011;25713;-35.352;149.036;2024-02-04T00:23:59;4.38;;;2.85;;
40022;SDS011;25713;-35.352;149.036;2024-02-04T00:26:29;6.35;;;2.72;;
40022;SDS011;25713;-35.352;149.036;2024-02-04T00:29:01;6.82;;;3.15;;
40022;SDS011;25713;-35.352;149.036;2024-02-04T00:31:30;4.88;;;2.90;;
40022;SDS011;25713;-35.352;149.036;2024-02-04T00:34:00;9.45;;;2.78;;
40022;SDS011;25713;-35.352;149.036;2024-02-04T00:36:30;12.93;;;2.80;;
40022;SDS011;25713;-35.352;149.036;2024-02-04T00:39:00;7.95;;;2.60;;
40022;SDS011;25713;-35.352;149.036;2024-02-04T00:41:30;6.75;;;2.55;;
40022;SDS011;25713;-35.352;149.036;2024-02-04T00:44:01;6.47;;;2.70;;
40022;SDS011;25713;-35.352;149.036;2024-02-04T00:46:31;10.05;;;2.78;;
40022;SDS011;25713;-35.352;149.036;2024-02-04T00:49:00;4.40;;;2.75;;
40022;SDS011;25713;-35.352;149.036;2024-02-04T00:51:30;8.45;;;2.95;;
40022;SDS011;25713;-35.352;149.036;2024-02-04T00:54:00;9.52;;;2.40;;
40022;SDS011;25713;-35.352;149.036;2024-02-04T00:56:29;8.60;;;2.78;;
40022;SDS011;25713;-35.352;149.036;2024-02-04T00:59:03;6.35;;;2.80;;
40022;SDS011;25713;-35.352;149.036;2024-02-04T01:01:33;5.13;;;2.60;;
40022;SDS011;25713;-35.352;149.036;2024-02-04T01:04:03;5.05;;;2.50;;
40022;SDS011;25713;-35.352;149.036;2024-02-04T01:06:33;4.32;;;2.40;;
40022;SDS011;25713;-35.352;149.036;2024-02-04T01:09:03;6.47;;;2.40;;
40022;SDS011;25713;-35.352;149.036;2024-02-04T01:11:35;8.55;;;2.63;;
40022;SDS011;25713;-35.352;149.036;2024-02-04T01:14:05;4.68;;;2.00;;
40022;SDS011;25713;-35.352;149.036;2024-02-04T01:16:35;7.55;;;2.63;;
40022;SDS011;25713;-35.352;149.036;2024-02-04T01:19:05;8.63;;;2.33;;
40022;SDS011;25713;-35.352;149.036;2024-02-04T01:21:34;4.10;;;2.00;;
40022;SDS011;25713;-35.352;149.036;2024-02-04T01:24:04;3.55;;;2.17;;
40022;SDS011;25713;-35.352;149.036;2024-02-04T01:26:36;6.07;;;2.20;;
40022;SDS011;25713;-35.352;149.036;2024-02-04T01:29:06;3.28;;;1.70;;
40022;SDS011;25713;-35.352;149.036;2024-02-04T01:31:35;3.83;;;1.80;;
40022;SDS011;25713;-35.352;149.036;2024-02-04T01:34:05;3.35;;;1.90;;
40022;SDS011;25713;-35.352;149.036;2024-02-04T01:36:34;4.38;;;1.77;;
40022;SDS011;25713;-35.352;149.036;2024-02-04T01:39:04;4.45;;;1.73;;
40022;SDS011;25713;-35.352;149.036;2024-02-04T01:41:37;2.92;;;1.67;;
40022;SDS011;25713;-35.352;149.036;2024-02-04T01:44:07;2.97;;;1.60;;
40022;SDS011;25713;-35.352;149.036;2024-02-04T01:46:36;2.58;;;1.70;;
40022;SDS011;25713;-35.352;149.036;2024-02-04T01:49:06;4.05;;;1.48;;
40022;SDS011;25713;-35.352;149.036;2024-02-04T01:51:36;5.50;;;1.77;;
40022;SDS011;25713;-35.352;149.036;2024-02-04T01:54:06;5.53;;;1.63;;
40022;SDS011;25713;-35.352;149.036;2024-02-04T01:56:38;4.30;;;1.55;;
40022;SDS011;25713;-35.352;149.036;2024-02-04T01:59:07;3.50;;;1.65;;
40022;SDS011;25713;-35.352;149.036;2024-02-04T02:01:38;3.47;;;1.60;;
40022;SDS011;25713;-35.352;149.036;2024-02-04T02:04:08;2.28;;;1.50;;
40022;SDS011;25713;-35.352;149.036;2024-02-04T02:06:38;4.70;;;1.80;;
40022;SDS011;25713;-35.352;149.036;2024-02-04T02:09:09;6.03;;;2.07;;
40022;SDS011;25713;-35.352;149.036;2024-02-04T02:11:40;6.45;;;2.03;;
40022;SDS011;25713;-35.352;149.036;2024-02-04T02:14:13;5.68;;;2.08;;
40022;SDS011;25713;-35.352;149.036;2024-02-04T02:16:46;8.40;;;2.03;;
40022;SDS011;25713;-35.352;149.036;2024-02-04T02:19:21;3.53;;;2.28;;
40022;SDS011;25713;-35.352;149.036;2024-02-04T02:22:06;5.30;;;2.63;;
40022;SDS011;25713;-35.352;149.036;2024-02-04T02:24:52;4.38;;;2.10;;
40022;SDS011;25713;-35.352;149.036;2024-02-04T02:27:23;4.03;;;1.85;;
40022;SDS011;25713;-35.352;149.036;2024-02-04T02:29:53;5.18;;;1.77;;
40022;SDS011;25713;-35.352;149.036;2024-02-04T02:32:22;4.40;;;1.90;;
40022;SDS011;25713;-35.352;149.036;2024-02-04T02:34:52;6.85;;;2.00;;
40022;SDS011;25713;-35.352;149.036;2024-02-04T02:37:33;3.92;;;1.95;;
40022;SDS011;25713;-35.352;149.036;2024-02-04T02:40:12;4.43;;;2.00;;
40022;SDS011;25713;-35.352;149.036;2024-02-04T02:42:49;5.20;;;1.90;;
40022;SDS011;25713;-35.352;149.036;2024-02-04T02:45:21;6.80;;;2.28;;
40022;SDS011;25713;-35.352;149.036;2024-02-04T02:47:52;4.30;;;1.73;;
40022;SDS011;25713;-35.352;149.036;2024-02-04T02:50:23;3.80;;;1.67;;
40022;SDS011;25713;-35.352;149.036;2024-02-04T02:52:53;3.95;;;1.67;;
40022;SDS011;25713;-35.352;149.036;2024-02-04T02:55:24;4.47;;;1.50;;
40022;SDS011;25713;-35.352;149.036;2024-02-04T02:57:53;4.07;;;1.67;;
40022;SDS011;25713;-35.352;149.036;2024-02-04T03:00:23;2.85;;;1.70;;
40022;SDS011;25713;-35.352;149.036;2024-02-04T03:02:52;5.43;;;1.80;;
40022;SDS011;25713;-35.352;149.036;2024-02-04T03:05:22;3.83;;;1.77;;
40022;SDS011;25713;-35.352;149.036;2024-02-04T03:07:51;3.60;;;1.90;;
40022;SDS011;25713;-35.352;149.036;2024-02-04T03:10:21;3.45;;;1.65;;
40022;SDS011;25713;-35.352;149.036;2024-02-04T03:12:52;3.03;;;1.65;;
40022;SDS011;25713;-35.352;149.036;2024-02-04T03:15:22;5.75;;;1.50;;
40022;SDS011;25713;-35.352;149.036;2024-02-04T03:17:51;4.10;;;1.70;;
40022;SDS011;25713;-35.352;149.036;2024-02-04T03:20:21;5.10;;;1.55;;
40022;SDS011;25713;-35.352;149.036;2024-02-04T03:22:50;5.25;;;1.80;;
40022;SDS011;25713;-35.352;149.036;2024-02-04T03:25:20;5.28;;;1.65;;
40022;SDS011;25713;-35.352;149.036;2024-02-04T03:27:52;2.60;;;1.55;;
40022;SDS011;25713;-35.352;149.036;2024-02-04T03:30:21;2.13;;;1.30;;
40022;SDS011;25713;-35.352;149.036;2024-02-04T03:32:51;3.58;;;1.55;;
40022;SDS011;25713;-35.352;149.036;2024-02-04T03:35:21;4.22;;;1.30;;
40022;SDS011;25713;-35.352;149.036;2024-02-04T03:37:51;2.90;;;1.10;;
40022;SDS011;25713;-35.352;149.036;2024-02-04T03:40:20;3.97;;;1.35;;
40022;SDS011;25713;-35.352;149.036;2024-02-04T03:42:52;2.83;;;1.40;;
40022;SDS011;25713;-35.352;149.036;2024-02-04T03:45:21;2.85;;;1.20;;
40022;SDS011;25713;-35.352;149.036;2024-02-04T03:47:51;3.67;;;1.33;;
40022;SDS011;25713;-35.352;149.036;2024-02-04T03:50:20;2.92;;;1.20;;
40022;SDS011;25713;-35.352;149.036;2024-02-04T03:52:50;6.85;;;1.27;;
40022;SDS011;25713;-35.352;149.036;2024-02-04T03:55:20;1.85;;;1.30;;
40022;SDS011;25713;-35.352;149.036;2024-02-04T03:57:51;2.20;;;1.15;;
40022;SDS011;25713;-35.352;149.036;2024-02-04T04:00:22;5.03;;;1.38;;
40022;SDS011;25713;-35.352;149.036;2024-02-04T04:02:51;2.75;;;1.30;;
40022;SDS011;25713;-35.352;149.036;2024-02-04T04:05:21;2.50;;;1.20;;
40022;SDS011;25713;-35.352;149.036;2024-02-04T04:07:50;2.75;;;1.20;;
40022;SDS011;25713;-35.352;149.036;2024-02-04T04:10:20;6.63;;;1.45;;
40022;SDS011;25713;-35.352;149.036;2024-02-04T04:12:51;2.97;;;1.20;;
40022;SDS011;25713;-35.352;149.036;2024-02-04T04:15:20;2.05;;;1.30;;
40022;SDS011;25713;-35.352;149.036;2024-02-04T04:17:50;2.63;;;1.27;;
40022;SDS011;25713;-35.352;149.036;2024-02-04T04:20:19;5.80;;;1.42;;
40022;SDS011;25713;-35.352;149.036;2024-02-04T04:22:49;3.30;;;1.58;;
40022;SDS011;25713;-35.352;149.036;2024-02-04T04:25:18;2.08;;;1.27;;
40022;SDS011;25713;-35.352;149.036;2024-02-04T04:27:48;2.20;;;1.45;;
40022;SDS011;25713;-35.352;149.036;2024-02-04T04:30:19;2.45;;;1.70;;
40022;SDS011;25713;-35.352;149.036;2024-02-04T04:32:49;4.18;;;1.27;;
40022;SDS011;25713;-35.352;149.036;2024-02-04T04:35:18;2.00;;;1.10;;
40022;SDS011;25713;-35.352;149.036;2024-02-04T04:37:48;4.13;;;1.25;;
40022;SDS011;25713;-35.352;149.036;2024-02-04T04:40:17;4.35;;;1.17;;
40022;SDS011;25713;-35.352;149.036;2024-02-04T04:42:47;4.22;;;1.15;;
40022;SDS011;25713;-35.352;149.036;2024-02-04T04:45:18;2.42;;;1.20;;
40022;SDS011;25713;-35.352;149.036;2024-02-04T04:47:48;3.20;;;1.40;;
40022;SDS011;25713;-35.352;149.036;2024-02-04T04:50:17;3.65;;;1.00;;
40022;SDS011;25713;-35.352;149.036;2024-02-04T04:52:47;2.03;;;1.00;;
40022;SDS011;25713;-35.352;149.036;2024-02-04T04:55:16;2.15;;;1.30;;
40022;SDS011;25713;-35.352;149.036;2024-02-04T04:57:46;5.10;;;1.08;;
40022;SDS011;25713;-35.352;149.036;2024-02-04T05:00:16;2.17;;;1.05;;
40022;SDS011;25713;-35.352;149.036;2024-02-04T05:02:48;5.65;;;1.13;;
40022;SDS011;25713;-35.352;149.036;2024-02-04T05:05:17;3.92;;;1.35;;
40022;SDS011;25713;-35.352;149.036;2024-02-04T05:07:47;4.40;;;1.73;;
40022;SDS011;25713;-35.352;149.036;2024-02-04T05:10:16;2.42;;;1.13;;
40022;SDS011;25713;-35.352;149.036;2024-02-04T05:12:46;1.55;;;0.95;;
40022;SDS011;25713;-35.352;149.036;2024-02-04T05:15:15;6.45;;;1.20;;
40022;SDS011;25713;-35.352;149.036;2024-02-04T05:17:47;2.90;;;0.90;;
40022;SDS011;25713;-35.352;149.036;2024-02-04T05:20:16;3.35;;;1.27;;
40022;SDS011;25713;-35.352;149.036;2024-02-04T05:22:46;4.40;;;1.10;;
40022;SDS011;25713;-35.352;149.036;2024-02-04T05:25:15;2.08;;;0.82;;
40022;SDS011;25713;-35.352;149.036;2024-02-04T05:27:45;3.95;;;1.15;;
40022;SDS011;25713;-35.352;149.036;2024-02-04T05:30:14;4.07;;;1.20;;
40022;SDS011;25713;-35.352;149.036;2024-02-04T05:32:44;4.93;;;1.10;;
40022;SDS011;25713;-35.352;149.036;2024-02-04T05:35:15;6.05;;;1.42;;
40022;SDS011;25713;-35.352;149.036;2024-02-04T05:37:45;3.88;;;1.00;;
40022;SDS011;25713;-35.352;149.036;2024-02-04T05:40:14;7.10;;;1.25;;
40022;SDS011;25713;-35.352;149.036;2024-02-04T05:42:44;3.80;;;1.20;;
40022;SDS011;25713;-35.352;149.036;2024-02-04T05:45:13;2.13;;;1.10;;
40022;SDS011;25713;-35.352;149.036;2024-02-04T05:47:43;2.53;;;1.25;;
40022;SDS011;25713;-35.352;149.036;2024-02-04T05:50:14;6.35;;;1.42;;
40022;SDS011;25713;-35.352;149.036;2024-02-04T05:52:44;2.10;;;1.23;;
40022;SDS011;25713;-35.352;149.036;2024-02-04T05:55:13;3.17;;;1.27;;
40022;SDS011;25713;-35.352;149.036;2024-02-04T05:57:43;3.88;;;1.52;;
40022;SDS011;25713;-35.352;149.036;2024-02-04T06:00:12;3.38;;;1.15;;
40022;SDS011;25713;-35.352;149.036;2024-02-04T06:02:43;5.05;;;1.45;;
40022;SDS011;25713;-35.352;149.036;2024-02-04T06:05:12;5.65;;;1.52;;
40022;SDS011;25713;-35.352;149.036;2024-02-04T06:10:12;3.25;;;1.60;;
40022;SDS011;25713;-35.352;149.036;2024-02-04T06:12:42;3.95;;;1.40;;
40022;SDS011;25713;-35.352;149.036;2024-02-04T06:15:12;3.90;;;1.52;;
40022;SDS011;25713;-35.352;149.036;2024-02-04T06:17:42;4.65;;;1.17;;
40022;SDS011;25713;-35.352;149.036;2024-02-04T06:20:12;4.43;;;1.23;;
40022;SDS011;25713;-35.352;149.036;2024-02-04T06:22:43;4.53;;;1.42;;
40022;SDS011;25713;-35.352;149.036;2024-02-04T06:25:13;4.90;;;1.27;;
40022;SDS011;25713;-35.352;149.036;2024-02-04T06:27:43;2.05;;;1.38;;
40022;SDS011;25713;-35.352;149.036;2024-02-04T06:30:12;5.13;;;1.25;;
40022;SDS011;25713;-35.352;149.036;2024-02-04T06:32:42;3.72;;;1.52;;
40022;SDS011;25713;-35.352;149.036;2024-02-04T06:35:12;5.03;;;1.30;;
40022;SDS011;25713;-35.352;149.036;2024-02-04T06:40:12;4.18;;;1.15;;
40022;SDS011;25713;-35.352;149.036;2024-02-04T06:42:41;5.15;;;1.20;;
40022;SDS011;25713;-35.352;149.036;2024-02-04T06:45:11;3.58;;;1.52;;
40022;SDS011;25713;-35.352;149.036;2024-02-04T06:47:43;5.20;;;1.20;;
40022;SDS011;25713;-35.352;149.036;2024-02-04T06:50:12;3.05;;;1.70;;
40022;SDS011;25713;-35.352;149.036;2024-02-04T06:52:44;4.60;;;1.60;;
40022;SDS011;25713;-35.352;149.036;2024-02-04T06:55:13;6.05;;;1.30;;
40022;SDS011;25713;-35.352;149.036;2024-02-04T06:57:43;5.65;;;1.20;;
40022;SDS011;25713;-35.352;149.036;2024-02-04T07:00:13;6.53;;;1.30;;
40022;SDS011;25713;-35.352;149.036;2024-02-04T07:02:43;2.15;;;1.10;;
40022;SDS011;25713;-35.352;149.036;2024-02-04T07:05:12;3.97;;;1.30;;
40022;SDS011;25713;-35.352;149.036;2024-02-04T07:07:44;4.88;;;1.35;;
40022;SDS011;25713;-35.352;149.036;2024-02-04T07:10:13;2.72;;;1.30;;
40022;SDS011;25713;-35.352;149.036;2024-02-04T07:12:43;3.78;;;1.20;;
40022;SDS011;25713;-35.352;149.036;2024-02-04T07:15:12;2.67;;;1.30;;
40022;SDS011;25713;-35.352;149.036;2024-02-04T07:17:42;3.55;;;1.35;;
40022;SDS011;25713;-35.352;149.036;2024-02-04T07:20:11;6.40;;;1.38;;
40022;SDS011;25713;-35.352;149.036;2024-02-04T07:22:43;3.03;;;1.30;;
40022;SDS011;25713;-35.352;149.036;2024-02-04T07:25:12;4.93;;;1.50;;
40022;SDS011;25713;-35.352;149.036;2024-02-04T07:27:42;4.53;;;1.30;;
40022;SDS011;25713;-35.352;149.036;2024-02-04T07:30:12;3.15;;;1.30;;
40022;SDS011;25713;-35.352;149.036;2024-02-04T07:32:42;4.25;;;1.13;;
40022;SDS011;25713;-35.352;149.036;2024-02-04T07:35:11;2.45;;;1.20;;
40022;SDS011;25713;-35.352;149.036;2024-02-04T07:37:43;5.50;;;1.23;;
40022;SDS011;25713;-35.352;149.036;2024-02-04T07:40:12;4.15;;;1.40;;
40022;SDS011;25713;-35.352;149.036;2024-02-04T07:42:42;3.80;;;1.40;;
40022;SDS011;25713;-35.352;149.036;2024-02-04T07:45:11;3.10;;;1.50;;
40022;SDS011;25713;-35.352;149.036;2024-02-04T07:47:41;4.88;;;1.35;;
40022;SDS011;25713;-35.352;149.036;2024-02-04T07:50:10;6.20;;;1.20;;
40022;SDS011;25713;-35.352;149.036;2024-02-04T07:52:40;4.32;;;1.33;;
40022;SDS011;25713;-35.352;149.036;2024-02-04T07:55:11;5.72;;;1.40;;
40022;SDS011;25713;-35.352;149.036;2024-02-04T07:57:41;3.83;;;1.10;;
40022;SDS011;25713;-35.352;149.036;2024-02-04T08:00:11;3.85;;;1.27;;
40022;SDS011;25713;-35.352;149.036;2024-02-04T08:02:43;7.75;;;1.27;;
40022;SDS011;25713;-35.352;149.036;2024-02-04T08:05:13;4.35;;;1.25;;
40022;SDS011;25713;-35.352;149.036;2024-02-04T08:07:44;7.95;;;1.63;;
40022;SDS011;25713;-35.352;149.036;2024-02-04T08:10:14;5.38;;;1.38;;
40022;SDS011;25713;-35.352;149.036;2024-02-04T08:12:43;5.57;;;1.30;;
40022;SDS011;25713;-35.352;149.036;2024-02-04T08:15:13;3.65;;;1.30;;
40022;SDS011;25713;-35.352;149.036;2024-02-04T08:17:42;2.42;;;1.25;;
40022;SDS011;25713;-35.352;149.036;2024-02-04T08:20:12;3.83;;;1.30;;
40022;SDS011;25713;-35.352;149.036;2024-02-04T08:22:41;3.05;;;1.30;;
40022;SDS011;25713;-35.352;149.036;2024-02-04T08:25:13;3.38;;;1.20;;
40022;SDS011;25713;-35.352;149.036;2024-02-04T08:27:43;1.55;;;1.30;;
40022;SDS011;25713;-35.352;149.036;2024-02-04T08:30:12;3.33;;;1.40;;
40022;SDS011;25713;-35.352;149.036;2024-02-04T08:32:42;3.25;;;1.08;;
40022;SDS011;25713;-35.352;149.036;2024-02-04T08:35:11;2.83;;;1.50;;
40022;SDS011;25713;-35.352;149.036;2024-02-04T08:37:41;2.08;;;1.20;;
40022;SDS011;25713;-35.352;149.036;2024-02-04T08:40:12;2.22;;;1.33;;
40022;SDS011;25713;-35.352;149.036;2024-02-04T08:42:42;3.20;;;1.40;;
40022;SDS011;25713;-35.352;149.036;2024-02-04T08:45:12;3.03;;;1.17;;
40022;SDS011;25713;-35.352;149.036;2024-02-04T08:47:41;3.35;;;1.40;;
40022;SDS011;25713;-35.352;149.036;2024-02-04T08:50:11;2.33;;;1.30;;
40022;SDS011;25713;-35.352;149.036;2024-02-04T08:52:40;2.58;;;1.45;;
40022;SDS011;25713;-35.352;149.036;2024-02-04T08:55:12;5.93;;;1.55;;
40022;SDS011;25713;-35.352;149.036;2024-02-04T08:57:41;2.00;;;1.27;;
40022;SDS011;25713;-35.352;149.036;2024-02-04T09:00:11;4.18;;;1.50;;
40022;SDS011;25713;-35.352;149.036;2024-02-04T09:02:41;1.65;;;1.30;;
40022;SDS011;25713;-35.352;149.036;2024-02-04T09:05:10;3.75;;;1.48;;
40022;SDS011;25713;-35.352;149.036;2024-02-04T09:07:40;4.82;;;1.42;;
40022;SDS011;25713;-35.352;149.036;2024-02-04T09:10:12;3.90;;;1.70;;
40022;SDS011;25713;-35.352;149.036;2024-02-04T09:12:41;3.80;;;1.33;;
40022;SDS011;25713;-35.352;149.036;2024-02-04T09:15:10;4.00;;;1.50;;
40022;SDS011;25713;-35.352;149.036;2024-02-04T09:17:40;3.35;;;1.33;;
40022;SDS011;25713;-35.352;149.036;2024-02-04T09:20:10;6.20;;;1.30;;
40022;SDS011;25713;-35.352;149.036;2024-02-04T09:22:40;5.63;;;1.30;;
40022;SDS011;25713;-35.352;149.036;2024-02-04T09:25:09;5.15;;;1.50;;
40022;SDS011;25713;-35.352;149.036;2024-02-04T09:27:41;4.38;;;1.58;;
40022;SDS011;25713;-35.352;149.036;2024-02-04T09:30:11;6.50;;;1.70;;
40022;SDS011;25713;-35.352;149.036;2024-02-04T09:32:40;3.25;;;1.17;;
40022;SDS011;25713;-35.352;149.036;2024-02-04T09:35:13;4.05;;;1.40;;
40022;SDS011;25713;-35.352;149.036;2024-02-04T09:37:42;4.40;;;1.35;;
40022;SDS011;25713;-35.352;149.036;2024-02-04T09:40:14;7.00;;;1.55;;
40022;SDS011;25713;-35.352;149.036;2024-02-04T09:42:43;7.70;;;1.70;;
40022;SDS011;25713;-35.352;149.036;2024-02-04T09:45:13;2.67;;;1.27;;
40022;SDS011;25713;-35.352;149.036;2024-02-04T09:47:43;4.03;;;1.30;;
40022;SDS011;25713;-35.352;149.036;2024-02-04T09:50:14;4.80;;;1.70;;
40022;SDS011;25713;-35.352;149.036;2024-02-04T09:52:43;5.30;;;1.67;;
40022;SDS011;25713;-35.352;149.036;2024-02-04T09:55:19;3.58;;;1.50;;
40022;SDS011;25713;-35.352;149.036;2024-02-04T09:57:49;4.70;;;1.60;;
40022;SDS011;25713;-35.352;149.036;2024-02-04T10:00:19;2.60;;;1.50;;
40022;SDS011;25713;-35.352;149.036;2024-02-04T10:02:49;4.07;;;1.88;;
40022;SDS011;25713;-35.352;149.036;2024-02-04T10:05:21;5.60;;;1.92;;
40022;SDS011;25713;-35.352;149.036;2024-02-04T10:07:50;4.68;;;1.42;;
40022;SDS011;25713;-35.352;149.036;2024-02-04T10:10:21;4.13;;;1.42;;
40022;SDS011;25713;-35.352;149.036;2024-02-04T10:12:51;4.95;;;1.70;;
40022;SDS011;25713;-35.352;149.036;2024-02-04T10:15:21;4.85;;;1.42;;
40022;SDS011;25713;-35.352;149.036;2024-02-04T10:17:51;6.20;;;1.70;;
40022;SDS011;25713;-35.352;149.036;2024-02-04T10:20:22;5.80;;;1.58;;
40022;SDS011;25713;-35.352;149.036;2024-02-04T10:22:51;3.88;;;1.58;;
40022;SDS011;25713;-35.352;149.036;2024-02-04T10:25:23;4.20;;;1.52;;
40022;SDS011;25713;-35.352;149.036;2024-02-04T10:27:53;6.20;;;1.40;;
40022;SDS011;25713;-35.352;149.036;2024-02-04T10:30:22;4.47;;;1.65;;
40022;SDS011;25713;-35.352;149.036;2024-02-04T10:32:52;2.92;;;1.42;;
40022;SDS011;25713;-35.352;149.036;2024-02-04T10:35:21;2.38;;;1.50;;
40022;SDS011;25713;-35.352;149.036;2024-02-04T10:37:51;7.82;;;1.85;;
40022;SDS011;25713;-35.352;149.036;2024-02-04T10:40:22;4.68;;;1.85;;
40022;SDS011;25713;-35.352;149.036;2024-02-04T10:42:52;5.05;;;1.90;;
40022;SDS011;25713;-35.352;149.036;2024-02-04T10:45:23;4.70;;;1.80;;
40022;SDS011;25713;-35.352;149.036;2024-02-04T10:47:56;6.82;;;1.83;;
40022;SDS011;25713;-35.352;149.036;2024-02-04T10:50:28;4.53;;;1.73;;
40022;SDS011;25713;-35.352;149.036;2024-02-04T10:53:04;4.95;;;1.80;;
40022;SDS011;25713;-35.352;149.036;2024-02-04T10:55:38;7.10;;;1.80;;
40022;SDS011;25713;-35.352;149.036;2024-02-04T10:58:11;3.20;;;1.67;;
40022;SDS011;25713;-35.352;149.036;2024-02-04T11:00:41;9.60;;;1.83;;
40022;SDS011;25713;-35.352;149.036;2024-02-04T11:03:11;2.83;;;1.55;;
40022;SDS011;25713;-35.352;149.036;2024-02-04T11:05:43;4.97;;;2.08;;
40022;SDS011;25713;-35.352;149.036;2024-02-04T11:08:14;12.55;;;1.90;;
40022;SDS011;25713;-35.352;149.036;2024-02-04T11:10:46;4.70;;;1.67;;
40022;SDS011;25713;-35.352;149.036;2024-02-04T11:13:16;5.40;;;1.80;;
40022;SDS011;25713;-35.352;149.036;2024-02-04T11:18:30;2.50;;;1.30;;
40022;SDS011;25713;-35.352;149.036;2024-02-04T11:21:18;8.23;;;1.80;;
40022;SDS011;25713;-35.352;149.036;2024-02-04T11:24:07;7.32;;;1.85;;
40022;SDS011;25713;-35.352;149.036;2024-02-04T11:26:49;3.75;;;1.60;;
40022;SDS011;25713;-35.352;149.036;2024-02-04T11:29:19;3.15;;;1.38;;
40022;SDS011;25713;-35.352;149.036;2024-02-04T11:31:48;4.35;;;1.63;;
40022;SDS011;25713;-35.352;149.036;2024-02-04T11:34:18;5.22;;;1.80;;
40022;SDS011;25713;-35.352;149.036;2024-02-04T11:36:48;8.32;;;1.73;;
40022;SDS011;25713;-35.352;149.036;2024-02-04T11:39:18;6.38;;;1.90;;
40022;SDS011;25713;-35.352;149.036;2024-02-04T11:41:49;7.82;;;1.80;;
40022;SDS011;25713;-35.352;149.036;2024-02-04T11:44:22;4.25;;;1.67;;
40022;SDS011;25713;-35.352;149.036;2024-02-04T11:46:52;3.22;;;1.80;;
40022;SDS011;25713;-35.352;149.036;2024-02-04T11:49:24;3.42;;;1.73;;
40022;SDS011;25713;-35.352;149.036;2024-02-04T11:51:54;3.00;;;1.48;;
40022;SDS011;25713;-35.352;149.036;2024-02-04T11:54:25;3.15;;;1.52;;
40022;SDS011;25713;-35.352;149.036;2024-02-04T11:56:56;4.77;;;1.60;;
40022;SDS011;25713;-35.352;149.036;2024-02-04T11:59:26;5.65;;;1.58;;
40022;SDS011;25713;-35.352;149.036;2024-02-04T12:01:57;3.60;;;1.70;;
40022;SDS011;25713;-35.352;149.036;2024-02-04T12:04:33;5.82;;;1.63;;
40022;SDS011;25713;-35.352;149.036;2024-02-04T12:07:03;4.05;;;1.80;;
40022;SDS011;25713;-35.352;149.036;2024-02-04T12:09:33;7.90;;;2.05;;
40022;SDS011;25713;-35.352;149.036;2024-02-04T12:12:05;3.60;;;1.70;;
40022;SDS011;25713;-35.352;149.036;2024-02-04T12:14:35;10.40;;;1.70;;
40022;SDS011;25713;-35.352;149.036;2024-02-04T12:17:07;4.38;;;1.80;;
40022;SDS011;25713;-35.352;149.036;2024-02-04T12:19:37;4.30;;;1.55;;
40022;SDS011;25713;-35.352;149.036;2024-02-04T12:22:06;5.05;;;1.42;;
40022;SDS011;25713;-35.352;149.036;2024-02-04T12:24:36;4.95;;;1.60;;
40022;SDS011;25713;-35.352;149.036;2024-02-04T12:27:08;5.05;;;1.90;;
40022;SDS011;25713;-35.352;149.036;2024-02-04T12:29:38;4.20;;;1.80;;
40022;SDS011;25713;-35.352;149.036;2024-02-04T12:32:07;5.68;;;1.75;;
40022;SDS011;25713;-35.352;149.036;2024-02-04T12:34:37;5.75;;;1.42;;
40022;SDS011;25713;-35.352;149.036;2024-02-04T12:37:07;4.97;;;2.35;;
40022;SDS011;25713;-35.352;149.036;2024-02-04T12:39:37;4.78;;;1.52;;
40022;SDS011;25713;-35.352;149.036;2024-02-04T12:42:09;4.45;;;1.60;;
40022;SDS011;25713;-35.352;149.036;2024-02-04T12:44:42;2.80;;;1.48;;
40022;SDS011;25713;-35.352;149.036;2024-02-04T12:47:11;4.70;;;1.33;;
40022;SDS011;25713;-35.352;149.036;2024-02-04T12:49:41;7.07;;;1.52;;
40022;SDS011;25713;-35.352;149.036;2024-02-04T12:52:11;5.70;;;1.50;;
40022;SDS011;25713;-35.352;149.036;2024-02-04T12:54:41;3.60;;;1.40;;
40022;SDS011;25713;-35.352;149.036;2024-02-04T12:57:20;4.95;;;1.40;;
40022;SDS011;25713;-35.352;149.036;2024-02-04T12:59:50;5.22;;;1.50;;
40022;SDS011;25713;-35.352;149.036;2024-02-04T13:02:20;3.90;;;1.60;;
40022;SDS011;25713;-35.352;149.036;2024-02-04T13:04:50;4.78;;;1.80;;
40022;SDS011;25713;-35.352;149.036;2024-02-04T13:07:19;7.63;;;1.60;;
40022;SDS011;25713;-35.352;149.036;2024-02-04T13:09:57;6.03;;;1.52;;
40022;SDS011;25713;-35.352;149.036;2024-02-04T13:12:29;7.65;;;1.48;;
40022;SDS011;25713;-35.352;149.036;2024-02-04T13:14:59;4.45;;;1.27;;
40022;SDS011;25713;-35.352;149.036;2024-02-04T13:17:28;6.78;;;1.45;;
40022;SDS011;25713;-35.352;149.036;2024-02-04T13:19:58;4.88;;;1.40;;
40022;SDS011;25713;-35.352;149.036;2024-02-04T13:22:27;3.58;;;1.35;;
40022;SDS011;25713;-35.352;149.036;2024-02-04T13:24:57;6.10;;;1.38;;
40022;SDS011;25713;-35.352;149.036;2024-02-04T13:27:28;7.63;;;1.30;;
40022;SDS011;25713;-35.352;149.036;2024-02-04T13:29:58;2.92;;;1.30;;
40022;SDS011;25713;-35.352;149.036;2024-02-04T13:32:27;2.78;;;1.40;;
40022;SDS011;25713;-35.352;149.036;2024-02-04T13:34:57;4.03;;;1.20;;
40022;SDS011;25713;-35.352;149.036;2024-02-04T13:37:26;6.05;;;1.30;;
40022;SDS011;25713;-35.352;149.036;2024-02-04T13:39:56;2.97;;;1.50;;
40022;SDS011;25713;-35.352;149.036;2024-02-04T13:42:25;4.10;;;1.40;;
40022;SDS011;25713;-35.352;149.036;2024-02-04T13:44:57;3.78;;;1.45;;
40022;SDS011;25713;-35.352;149.036;2024-02-04T13:47:26;2.33;;;1.27;;
40022;SDS011;25713;-35.352;149.036;2024-02-04T13:49:56;4.80;;;1.60;;
40022;SDS011;25713;-35.352;149.036;2024-02-04T13:52:25;7.40;;;1.65;;
40022;SDS011;25713;-35.352;149.036;2024-02-04T13:54:55;3.97;;;1.40;;
40022;SDS011;25713;-35.352;149.036;2024-02-04T13:57:24;2.03;;;1.42;;
40022;SDS011;25713;-35.352;149.036;2024-02-04T13:59:56;2.60;;;1.30;;
40022;SDS011;25713;-35.352;149.036;2024-02-04T14:04:54;2.55;;;1.15;;
40022;SDS011;25713;-35.352;149.036;2024-02-04T14:07:24;2.38;;;1.10;;
40022;SDS011;25713;-35.352;149.036;2024-02-04T14:09:54;3.65;;;1.20;;
40022;SDS011;25713;-35.352;149.036;2024-02-04T14:12:23;3.45;;;1.50;;
40022;SDS011;25713;-35.352;149.036;2024-02-04T14:14:53;5.25;;;1.35;;
40022;SDS011;25713;-35.352;149.036;2024-02-04T14:17:24;4.78;;;1.27;;
40022;SDS011;25713;-35.352;149.036;2024-02-04T14:19:54;5.05;;;1.30;;
40022;SDS011;25713;-35.352;149.036;2024-02-04T14:22:23;6.45;;;1.55;;
40022;SDS011;25713;-35.352;149.036;2024-02-04T14:24:53;2.67;;;1.23;;
40022;SDS011;25713;-35.352;149.036;2024-02-04T14:27:22;2.33;;;1.33;;
40022;SDS011;25713;-35.352;149.036;2024-02-04T14:29:51;1.77;;;1.30;;
40022;SDS011;25713;-35.352;149.036;2024-02-04T14:32:23;4.78;;;1.30;;
40022;SDS011;25713;-35.352;149.036;2024-02-04T14:34:53;1.83;;;1.08;;
40022;SDS011;25713;-35.352;149.036;2024-02-04T14:37:22;2.63;;;1.20;;